Time;durP1;ratioP1;P1;durP2;ratioP2;P2;SDS_P1;SDS_P2;PMS_P1;PMS_P2;Temp;Humidity;BMP_temperature;BMP_pressure;BME280_temperature;BME280_humidity;BME280_pressure;Samples;Min_cycle;Max_cycle;Signal;HPM_P1;HPM_P2
2021/05/27 00:01:30;;;;;;;6.15;3.38;;;9.50;99.90;;;;;;5037659;28;20040;-76
2021/05/27 00:03:56;;;;;;;8.10;4.15;;;9.40;99.90;;;;;;5051406;28;20044;-78
2021/05/27 00:06:21;;;;;;;5.80;4.00;;;9.40;99.90;;;;;;5039015;28;20112;-75
2021/05/27 00:08:47;;;;;;;6.93;3.72;;;;;;;;;;5052747;28;20036;-78
2021/05/27 00:11:13;;;;;;;8.65;4.05;;;9.40;99.90;;;;;;5038405;28;20032;-76
2021/05/27 00:13:39;;;;;;;5.38;3.80;;;9.40;99.90;;;;;;5041585;28;20759;-79
2021/05/27 00:16:05;;;;;;;6.07;3.55;;;9.40;99.90;;;;;;5053345;28;20075;-78
2021/05/27 00:18:30;;;;;;;7.40;4.10;;;9.40;99.90;;;;;;5037506;28;20032;-76
2021/05/27 00:20:56;;;;;;;7.82;4.03;;;9.40;99.90;;;;;;5056042;28;20032;-79
2021/05/27 00:23:24;;;;;;;8.95;3.92;;;9.30;99.90;;;;;;5039569;28;20036;-78
2021/05/27 00:25:49;;;;;;;7.00;3.78;;;9.30;99.90;;;;;;5034155;28;20031;-80
2021/05/27 00:28:17;;;;;;;7.60;4.13;;;9.30;99.90;;;;;;5037275;28;20032;-78
2021/05/27 00:30:43;;;;;;;6.80;4.00;;;9.30;99.90;;;;;;5041332;28;20037;-76
2021/05/27 00:33:08;;;;;;;7.07;4.53;;;9.30;99.90;;;;;;5049971;28;20035;-79
2021/05/27 00:35:34;;;;;;;7.07;3.95;;;9.20;99.90;;;;;;5053950;28;20035;-79
2021/05/27 00:38:02;;;;;;;6.80;4.25;;;9.20;99.90;;;;;;5033051;28;20491;-79
2021/05/27 00:40:27;;;;;;;6.72;4.22;;;9.30;99.90;;;;;;5054293;28;20029;-80
2021/05/27 00:42:53;;;;;;;9.85;4.40;;;9.70;99.90;;;;;;5050564;28;20021;-77
2021/05/27 00:45:19;;;;;;;6.63;4.05;;;9.30;99.90;;;;;;5054042;28;20430;-78
2021/05/27 00:47:46;;;;;;;6.70;4.25;;;9.40;99.90;;;;;;5051531;28;20048;-75
2021/05/27 00:50:21;;;;;;;8.27;4.40;;;9.40;99.90;;;;;;5035083;28;20032;-78
2021/05/27 00:52:49;;;;;;;6.80;4.00;;;9.50;99.90;;;;;;5038739;28;20032;-77
2021/05/27 00:55:15;;;;;;;5.45;3.97;;;9.50;99.90;;;;;;5040440;28;20182;-77
2021/05/27 00:57:41;;;;;;;6.80;3.67;;;9.50;99.90;;;;;;5050599;28;20074;-78
2021/05/27 01:00:14;;;;;;;7.22;4.38;;;9.60;99.90;;;;;;5050262;28;20028;-77
2021/05/27 01:02:41;;;;;;;6.30;4.30;;;9.60;99.90;;;;;;5035991;28;20047;-78
2021/05/27 01:05:09;;;;;;;5.47;3.95;;;9.60;99.90;;;;;;5032836;28;20108;-78
2021/05/27 01:07:36;;;;;;;6.63;4.05;;;9.60;99.90;;;;;;5052813;28;20048;-80
2021/05/27 01:10:04;;;;;;;9.80;4.47;;;9.50;99.90;;;;;;5037010;28;20164;-77
2021/05/27 01:12:29;;;;;;;6.70;4.15;;;9.50;99.90;;;;;;5035389;28;20025;-79
2021/05/27 01:17:39;;;;;;;9.95;4.53;;;9.60;99.90;;;;;;5056594;28;20036;-79
2021/05/27 01:20:10;;;;;;;8.43;4.60;;;9.60;99.90;;;;;;5044920;28;20037;-78
2021/05/27 01:22:36;;;;;;;9.70;4.70;;;9.60;99.90;;;;;;5042290;28;20074;-77
2021/05/27 01:25:02;;;;;;;6.57;4.32;;;9.70;99.90;;;;;;5056960;28;20039;-78
2021/05/27 01:27:28;;;;;;;5.28;4.10;;;9.60;99.90;;;;;;5039173;28;20048;-79
2021/05/27 01:29:54;;;;;;;6.15;4.22;;;9.60;99.90;;;;;;5041926;28;20031;-77
2021/05/27 01:32:20;;;;;;;8.02;4.47;;;9.60;99.90;;;;;;5040483;28;20051;-77
2021/05/27 01:34:46;;;;;;;7.78;5.55;;;9.50;99.90;;;;;;5047734;28;20021;-77
2021/05/27 01:37:12;;;;;;;7.50;4.75;;;9.60;99.90;;;;;;5055749;28;20039;-77
2021/05/27 01:39:37;;;;;;;7.15;4.75;;;9.60;99.90;;;;;;5042936;28;20048;-78
2021/05/27 01:42:03;;;;;;;7.43;4.35;;;9.60;99.90;;;;;;5054877;28;20035;-77
2021/05/27 01:44:32;;;;;;;7.07;4.68;;;9.60;99.90;;;;;;5038128;28;20048;-79
2021/05/27 01:46:57;;;;;;;7.32;4.80;;;9.70;99.90;;;;;;5034608;28;20032;-77
2021/05/27 01:49:23;;;;;;;8.05;4.65;;;9.70;99.90;;;;;;5044440;28;20051;-76
2021/05/27 01:51:49;;;;;;;8.70;4.47;;;9.70;99.90;;;;;;5038328;28;20021;-77
2021/05/27 01:54:16;;;;;;;9.95;4.35;;;9.80;99.90;;;;;;5037071;28;20024;-77
2021/05/27 01:56:42;;;;;;;8.38;4.50;;;9.80;99.90;;;;;;5039416;28;20388;-83
2021/05/27 01:59:08;;;;;;;6.85;3.85;;;9.90;99.90;;;;;;5052470;28;20499;-77
2021/05/27 02:01:34;;;;;;;10.68;4.75;;;9.80;99.90;;;;;;5051252;28;20060;-78
2021/05/27 02:03:59;;;;;;;7.85;4.32;;;9.90;99.90;;;;;;5042952;28;20047;-77
2021/05/27 02:06:25;;;;;;;8.30;4.40;;;9.80;99.90;;;;;;5058685;28;20025;-78
2021/05/27 02:09:09;;;;;;;5.93;4.20;;;9.80;99.90;;;;;;5041143;28;20115;-78
2021/05/27 02:11:37;;;;;;;6.38;3.85;;;9.70;99.90;;;;;;5052918;28;20114;-78
2021/05/27 02:14:04;;;;;;;5.50;4.10;;;9.90;99.90;;;;;;5052021;28;20024;-78
2021/05/27 02:16:30;;;;;;;8.20;4.38;;;9.80;99.90;;;;;;5041415;28;20043;-74
2021/05/27 02:18:55;;;;;;;6.18;3.95;;;9.80;99.90;;;;;;5041943;28;20036;-79
2021/05/27 02:21:21;;;;;;;5.68;4.00;;;9.80;99.90;;;;;;5038871;28;20110;-78
2021/05/27 02:23:46;;;;;;;5.95;3.90;;;9.80;99.90;;;;;;5051813;28;20029;-77
2021/05/27 02:26:12;;;;;;;9.02;4.70;;;9.90;99.90;;;;;;5057348;28;20074;-79
2021/05/27 02:28:37;;;;;;;8.48;4.78;;;9.90;99.90;;;;;;5039092;28;20136;-77
2021/05/27 02:31:03;;;;;;;6.18;3.88;;;10.10;99.90;;;;;;5039513;28;20032;-77
2021/05/27 02:33:29;;;;;;;6.35;4.22;;;9.90;99.90;;;;;;5031518;28;20028;-78
2021/05/27 02:35:54;;;;;;;6.10;4.03;;;9.90;99.90;;;;;;5058249;28;20028;-76
2021/05/27 02:38:20;;;;;;;7.60;4.20;;;9.90;99.90;;;;;;5037799;28;20028;-75
2021/05/27 02:40:46;;;;;;;6.35;4.78;;;9.90;99.90;;;;;;5034702;28;20399;-76
2021/05/27 02:43:11;;;;;;;7.70;4.18;;;9.90;99.90;;;;;;5052118;28;20039;-77
2021/05/27 02:45:37;;;;;;;5.55;4.03;;;9.80;99.90;;;;;;5039847;28;20391;-78
2021/05/27 02:48:03;;;;;;;5.88;4.15;;;9.80;99.90;;;;;;5041988;28;20115;-76
2021/05/27 02:50:28;;;;;;;8.23;4.00;;;9.80;99.90;;;;;;5056093;28;20032;-81
2021/05/27 02:52:54;;;;;;;7.10;4.18;;;9.90;99.90;;;;;;5053525;28;20029;-77
2021/05/27 02:55:20;;;;;;;7.13;4.10;;;9.90;99.90;;;;;;5055812;28;20088;-77
2021/05/27 02:57:45;;;;;;;7.00;4.32;;;9.80;99.90;;;;;;5036857;28;21749;-76
2021/05/27 03:00:11;;;;;;;6.15;4.22;;;9.80;99.90;;;;;;5056247;28;20120;-75
2021/05/27 03:02:39;;;;;;;6.45;4.20;;;9.90;99.90;;;;;;5051447;28;20032;-75
2021/05/27 03:05:06;;;;;;;5.68;3.92;;;9.90;99.90;;;;;;5051049;28;20086;-78
2021/05/27 03:07:31;;;;;;;9.52;4.38;;;9.90;99.90;;;;;;5037884;28;20036;-79
2021/05/27 03:09:57;;;;;;;6.05;4.43;;;10.00;99.90;;;;;;5035812;28;20025;-77
2021/05/27 03:12:22;;;;;;;5.32;3.85;;;9.90;99.90;;;;;;5031805;28;20476;-77
2021/05/27 03:14:48;;;;;;;5.50;3.75;;;9.90;99.90;;;;;;5059687;28;20028;-77
2021/05/27 03:17:13;;;;;;;9.18;4.10;;;9.80;99.90;;;;;;5052777;28;20097;-77
2021/05/27 03:19:39;;;;;;;7.95;4.22;;;9.80;99.90;;;;;;5052670;28;20043;-78
2021/05/27 03:22:05;;;;;;;6.15;3.92;;;9.80;99.90;;;;;;5035524;28;20403;-79
2021/05/27 03:24:30;;;;;;;6.50;4.03;;;9.80;99.90;;;;;;5044929;28;20028;-79
2021/05/27 03:26:56;;;;;;;6.07;4.10;;;9.70;99.90;;;;;;5039933;28;20327;-79
2021/05/27 03:29:21;;;;;;;6.47;3.88;;;9.70;99.90;;;;;;5049809;28;20036;-78
2021/05/27 03:31:47;;;;;;;8.77;4.13;;;9.90;99.90;;;;;;5046527;28;20033;-78
2021/05/27 03:34:14;;;;;;;6.68;3.80;;;9.80;99.90;;;;;;5036829;28;20450;-74
2021/05/27 03:36:42;;;;;;;7.55;4.10;;;9.80;99.90;;;;;;5055995;28;20032;-77
2021/05/27 03:39:08;;;;;;;6.15;3.90;;;9.80;99.90;;;;;;5049877;28;20203;-75
2021/05/27 03:41:34;;;;;;;7.25;4.05;;;9.80;99.90;;;;;;5033472;28;20029;-78
2021/05/27 03:43:59;;;;;;;5.80;3.95;;;9.80;99.90;;;;;;5052375;28;20719;-76
2021/05/27 03:46:25;;;;;;;5.60;3.80;;;9.80;99.90;;;;;;5033631;28;20028;-77
2021/05/27 03:48:51;;;;;;;7.72;4.13;;;9.80;99.90;;;;;;5043742;28;20414;-79
2021/05/27 03:51:16;;;;;;;6.82;4.03;;;9.80;99.90;;;;;;5046273;28;20024;-77
2021/05/27 03:53:42;;;;;;;6.75;4.13;;;9.70;99.90;;;;;;5042151;28;20099;-78
2021/05/27 03:56:08;;;;;;;9.88;4.13;;;9.70;99.90;;;;;;5056763;28;21825;-80
2021/05/27 04:01:18;;;;;;;6.97;4.05;;;9.70;99.90;;;;;;5052495;28;20620;-78
2021/05/27 04:09:13;;;;;;;8.23;4.35;;;9.80;99.90;;;;;;5047426;28;20544;-77
2021/05/27 04:11:39;;;;;;;7.03;4.30;;;9.80;99.90;;;;;;5036549;28;20032;-78
2021/05/27 04:14:04;;;;;;;7.70;4.25;;;9.80;99.90;;;;;;5057541;28;20021;-77
2021/05/27 04:16:30;;;;;;;8.27;4.25;;;9.80;99.90;;;;;;5062267;28;20411;-79
2021/05/27 04:18:56;;;;;;;8.05;4.38;;;9.80;99.90;;;;;;5056115;28;20103;-77
2021/05/27 04:21:21;;;;;;;7.63;4.32;;;9.80;99.90;;;;;;5044649;28;20032;-78
2021/05/27 04:23:47;;;;;;;6.55;3.97;;;9.90;99.90;;;;;;5054408;28;20479;-76
2021/05/27 04:26:15;;;;;;;8.02;4.43;;;10.00;99.90;;;;;;5053748;28;20029;-76
2021/05/27 04:28:43;;;;;;;6.13;4.57;;;11.70;99.90;;;;;;5039560;28;20041;-75
2021/05/27 04:31:12;;;;;;;6.38;4.10;;;10.10;99.90;;;;;;5039080;28;20032;-75
2021/05/27 04:33:44;;;;;;;7.72;3.95;;;10.00;99.90;;;;;;5053550;28;20036;-78
2021/05/27 04:36:11;;;;;;;10.05;5.00;;;10.00;99.90;;;;;;5044791;28;20025;-77
2021/05/27 04:38:37;;;;;;;7.95;4.18;;;10.10;99.90;;;;;;5047419;28;20156;-75
2021/05/27 04:41:03;;;;;;;8.13;4.60;;;;;;;;;;5035873;28;20563;-79
2021/05/27 04:43:29;;;;;;;7.78;4.78;;;10.20;99.90;;;;;;5032531;28;20028;-76
2021/05/27 04:45:55;;;;;;;7.75;4.90;;;10.10;99.90;;;;;;5040520;28;20033;-76
2021/05/27 04:48:20;;;;;;;9.20;5.32;;;10.10;99.90;;;;;;5051689;28;20029;-78
2021/05/27 04:50:49;;;;;;;9.15;4.60;;;10.20;99.90;;;;;;5058553;28;20326;-75
2021/05/27 04:53:16;;;;;;;9.73;5.18;;;11.70;99.90;;;;;;5062562;28;20086;-78
2021/05/27 04:55:42;;;;;;;10.60;5.18;;;10.40;99.90;;;;;;5057193;28;20037;-77
2021/05/27 04:58:08;;;;;;;8.52;4.78;;;10.30;99.90;;;;;;5038498;28;20036;-77
2021/05/27 05:00:34;;;;;;;6.95;4.50;;;;;;;;;;5040287;28;20079;-76
2021/05/27 05:03:00;;;;;;;8.95;5.55;;;10.30;99.90;;;;;;5055311;28;20044;-77
2021/05/27 05:05:27;;;;;;;7.05;5.00;;;10.30;99.90;;;;;;5037881;28;20029;-78
2021/05/27 05:07:54;;;;;;;6.63;4.63;;;;;;;;;;5040211;28;20040;-81
2021/05/27 05:10:22;;;;;;;13.75;5.22;;;10.40;99.90;;;;;;5039720;28;20036;-79
2021/05/27 05:12:52;;;;;;;9.63;5.07;;;10.40;99.90;;;;;;5038043;28;20028;-78
2021/05/27 05:15:29;;;;;;;8.30;4.88;;;10.40;99.90;;;;;;5036359;28;20487;-79
2021/05/27 05:17:55;;;;;;;8.35;5.30;;;;;;;;;;5045075;28;20048;-77
2021/05/27 05:20:23;;;;;;;6.50;4.63;;;10.60;99.90;;;;;;5048751;28;20032;-77
2021/05/27 05:22:49;;;;;;;7.18;4.50;;;;;;;;;;5061815;28;20146;-77
2021/05/27 05:25:15;;;;;;;7.72;4.88;;;10.60;99.90;;;;;;5048346;28;20078;-76
2021/05/27 05:27:41;;;;;;;7.00;4.28;;;;;;;;;;5043826;28;20383;-77
2021/05/27 05:30:09;;;;;;;9.18;4.70;;;10.70;99.90;;;;;;5053947;28;20025;-77
2021/05/27 05:32:35;;;;;;;7.85;4.45;;;10.90;99.90;;;;;;5058830;28;20359;-77
2021/05/27 05:35:00;;;;;;;7.00;4.00;;;10.90;99.90;;;;;;5063082;28;20364;-76
2021/05/27 05:37:27;;;;;;;10.40;4.28;;;11.40;99.90;;;;;;5039608;28;20566;-80
2021/05/27 05:39:53;;;;;;;4.80;3.38;;;;;;;;;;5058026;28;20159;-77
2021/05/27 05:42:19;;;;;;;5.43;4.05;;;;;;;;;;5038146;28;20112;-75
2021/05/27 05:44:45;;;;;;;6.32;3.83;;;12.10;99.90;;;;;;5055768;28;20098;-77
2021/05/27 05:47:11;;;;;;;6.30;3.58;;;;;;;;;;5057618;28;20024;-75
2021/05/27 05:49:36;;;;;;;6.00;3.50;;;12.80;99.90;;;;;;5042971;28;20036;-77
2021/05/27 05:52:03;;;;;;;6.00;3.42;;;13.10;99.90;;;;;;5051228;28;20032;-77
2021/05/27 05:54:29;;;;;;;5.40;3.13;;;;;;;;;;5033636;28;20029;-78
2021/05/27 05:56:54;;;;;;;5.13;3.42;;;11.90;99.90;;;;;;5035830;28;20028;-78
2021/05/27 05:59:20;;;;;;;6.22;3.72;;;13.20;99.90;;;;;;5047299;28;20070;-78
2021/05/27 06:01:45;;;;;;;7.32;3.60;;;13.20;99.90;;;;;;5040963;28;20028;-78
2021/05/27 06:04:13;;;;;;;7.28;4.20;;;13.10;99.90;;;;;;5049223;28;20082;-80
2021/05/27 06:06:39;;;;;;;8.35;3.50;;;13.00;99.90;;;;;;5039096;28;20033;-79
2021/05/27 06:09:04;;;;;;;4.40;3.03;;;13.30;99.90;;;;;;5043087;28;20025;-78
2021/05/27 06:11:30;;;;;;;4.00;2.80;;;13.70;99.90;;;;;;5049594;28;20033;-77
2021/05/27 06:13:56;;;;;;;7.68;3.00;;;;;;;;;;5041740;28;20495;-77
2021/05/27 06:16:25;;;;;;;3.97;2.22;;;;;;;;;;5056206;28;20094;-77
2021/05/27 06:18:51;;;;;;;5.30;2.72;;;14.20;99.90;;;;;;5040275;28;20032;-76
2021/05/27 06:21:17;;;;;;;5.50;2.85;;;14.10;99.50;;;;;;5055071;28;20112;-77
2021/05/27 06:23:42;;;;;;;5.30;2.83;;;13.90;99.90;;;;;;5057030;28;20066;-78
2021/05/27 06:26:08;;;;;;;5.63;2.72;;;13.70;99.90;;;;;;5053844;28;20066;-79
2021/05/27 06:28:33;;;;;;;5.65;2.60;;;13.40;99.90;;;;;;5041959;28;20032;-78
2021/05/27 06:30:59;;;;;;;4.70;2.35;;;13.20;99.90;;;;;;5054632;28;20095;-78
2021/05/27 06:33:24;;;;;;;3.78;2.30;;;13.30;99.90;;;;;;5040631;28;20060;-77
2021/05/27 06:35:50;;;;;;;5.63;2.80;;;13.30;99.90;;;;;;5057157;28;20025;-77
2021/05/27 06:38:16;;;;;;;5.57;2.42;;;13.30;99.90;;;;;;5055352;28;20032;-78
2021/05/27 06:40:42;;;;;;;4.05;2.25;;;13.10;99.90;;;;;;5053752;28;20526;-77
2021/05/27 06:43:10;;;;;;;4.93;2.33;;;13.00;99.90;;;;;;5057167;28;20027;-77
2021/05/27 06:45:36;;;;;;;7.75;2.20;;;;;;;;;;5042819;28;20115;-75
2021/05/27 06:48:02;;;;;;;5.90;2.25;;;12.70;99.90;;;;;;5040936;28;20036;-79
2021/05/27 06:50:37;;;;;;;3.13;2.10;;;12.70;99.90;;;;;;5039335;28;20593;-77
2021/05/27 06:53:05;;;;;;;4.55;2.13;;;12.50;99.90;;;;;;5042368;28;20122;-78
2021/05/27 06:55:32;;;;;;;3.95;1.77;;;12.80;99.90;;;;;;5032477;28;20032;-77
2021/05/27 06:57:58;;;;;;;4.72;2.33;;;12.90;99.90;;;;;;5049017;28;20059;-75
2021/05/27 07:00:24;;;;;;;3.83;1.73;;;13.10;99.90;;;;;;5049034;28;20025;-77
2021/05/27 07:02:52;;;;;;;5.13;1.80;;;13.10;99.90;;;;;;5053553;28;20028;-77
2021/05/27 07:05:19;;;;;;;2.90;1.45;;;13.20;99.90;;;;;;5052623;28;20032;-77
2021/05/27 07:07:47;;;;;;;5.05;1.50;;;;;;;;;;5038288;28;20040;-76
2021/05/27 07:10:17;;;;;;;5.18;1.50;;;13.60;97.40;;;;;;5036761;28;20020;-79
2021/05/27 07:12:52;;;;;;;3.25;1.10;;;;;;;;;;5049735;28;20029;-78
2021/05/27 07:15:22;;;;;;;6.15;1.67;;;14.00;96.70;;;;;;5049894;28;20998;-78
2021/05/27 07:17:49;;;;;;;3.33;1.67;;;14.00;96.80;;;;;;5052776;28;20031;-81
2021/05/27 07:20:15;;;;;;;3.92;1.40;;;14.30;95.90;;;;;;5051886;28;20361;-79
2021/05/27 07:22:41;;;;;;;4.47;1.85;;;14.40;96.00;;;;;;5032108;28;20040;-76
2021/05/27 07:25:11;;;;;;;4.53;1.77;;;14.50;95.10;;;;;;5054572;28;20020;-80
2021/05/27 07:27:37;;;;;;;3.78;1.27;;;;;;;;;;5052778;28;20396;-79
2021/05/27 07:30:05;;;;;;;4.07;1.58;;;14.50;95.20;;;;;;5058373;28;20116;-79
2021/05/27 07:32:31;;;;;;;4.72;1.40;;;14.60;95.40;;;;;;5053313;28;20082;-77
2021/05/27 07:34:57;;;;;;;2.95;1.50;;;14.90;94.50;;;;;;5040772;28;20510;-77
2021/05/27 07:37:23;;;;;;;2.30;1.38;;;14.80;95.00;;;;;;5038459;28;20025;-78
2021/05/27 07:39:49;;;;;;;4.57;2.47;;;14.90;94.40;;;;;;5040795;28;20044;-77
2021/05/27 07:42:14;;;;;;;5.60;1.50;;;15.00;94.10;;;;;;5043386;28;20043;-78
2021/05/27 07:44:40;;;;;;;5.72;1.70;;;14.90;94.00;;;;;;5060750;28;20037;-80
2021/05/27 07:47:06;;;;;;;5.45;1.50;;;15.10;94.00;;;;;;5042302;28;20044;-79
2021/05/27 07:49:31;;;;;;;2.80;1.75;;;15.20;93.80;;;;;;5055547;28;20024;-77
2021/05/27 07:51:57;;;;;;;2.50;1.45;;;;;;;;;;5040956;28;20021;-79
2021/05/27 07:54:24;;;;;;;5.28;1.83;;;;;;;;;;5036178;28;20035;-77
2021/05/27 07:56:49;;;;;;;4.50;1.63;;;14.80;93.60;;;;;;5056660;28;20028;-78
2021/05/27 07:59:15;;;;;;;3.78;1.40;;;14.80;93.70;;;;;;5036194;28;20025;-78
2021/05/27 08:01:44;;;;;;;5.78;1.58;;;14.90;93.50;;;;;;5054621;28;20082;-76
2021/05/27 08:04:10;;;;;;;3.05;1.48;;;14.90;93.30;;;;;;5056185;28;20067;-77
2021/05/27 08:06:37;;;;;;;2.75;1.45;;;15.00;93.20;;;;;;5039297;28;20078;-78
2021/05/27 08:09:06;;;;;;;3.97;1.50;;;15.20;93.50;;;;;;5055649;28;20466;-76
2021/05/27 08:11:32;;;;;;;5.47;1.80;;;15.30;93.20;;;;;;5058371;28;20029;-78
2021/05/27 08:13:58;;;;;;;4.63;1.52;;;15.30;92.70;;;;;;5041253;28;20546;-78
2021/05/27 08:16:23;;;;;;;5.28;1.60;;;15.30;92.60;;;;;;5057269;28;20162;-77
2021/05/27 08:18:49;;;;;;;4.55;1.90;;;15.20;93.20;;;;;;5042597;28;20028;-78
2021/05/27 08:21:15;;;;;;;3.58;1.48;;;15.30;92.70;;;;;;5056064;28;20021;-78
2021/05/27 08:23:41;;;;;;;2.90;1.52;;;15.40;93.00;;;;;;5052021;28;20029;-79
2021/05/27 08:26:07;;;;;;;4.03;1.70;;;15.60;92.40;;;;;;5040276;28;20119;-81
2021/05/27 08:28:32;;;;;;;4.45;1.48;;;15.50;92.70;;;;;;5038548;28;20040;-78
2021/05/27 08:31:00;;;;;;;2.55;1.50;;;15.70;92.30;;;;;;5040064;28;20033;-78
2021/05/27 08:33:25;;;;;;;2.70;1.40;;;15.60;92.10;;;;;;5050489;28;20025;-78
2021/05/27 08:35:51;;;;;;;5.65;1.58;;;15.30;92.90;;;;;;5054607;28;20039;-77
2021/05/27 08:38:17;;;;;;;3.45;1.73;;;15.10;92.70;;;;;;5038000;28;20056;-78
2021/05/27 08:40:42;;;;;;;3.70;2.10;;;15.00;93.40;;;;;;5053247;28;20101;-76
2021/05/27 08:43:08;;;;;;;5.43;1.52;;;14.90;93.40;;;;;;5034737;28;20059;-78
2021/05/27 08:45:36;;;;;;;5.63;1.90;;;14.80;94.10;;;;;;5036953;28;20027;-78
2021/05/27 08:48:05;;;;;;;5.50;1.60;;;14.70;94.40;;;;;;5036562;28;20052;-79
2021/05/27 08:50:35;;;;;;;3.65;2.42;;;14.80;94.00;;;;;;5055432;28;20025;-78
2021/05/27 08:53:01;;;;;;;6.15;3.13;;;14.70;94.20;;;;;;5037562;28;20039;-79
2021/05/27 08:55:27;;;;;;;3.75;1.80;;;14.60;94.50;;;;;;5058948;28;20084;-80
2021/05/27 08:57:53;;;;;;;4.90;1.52;;;14.30;94.60;;;;;;5034537;28;20075;-81
2021/05/27 09:00:19;;;;;;;4.43;1.70;;;14.70;95.00;;;;;;5056371;28;20036;-78
2021/05/27 09:02:53;;;;;;;4.78;1.88;;;14.70;94.90;;;;;;5056190;28;20025;-82
2021/05/27 09:05:20;;;;;;;4.45;2.25;;;14.80;94.50;;;;;;5040119;28;20119;-79
2021/05/27 09:07:45;;;;;;;7.85;2.15;;;14.90;94.00;;;;;;5059576;28;20131;-78
2021/05/27 09:10:11;;;;;;;5.68;2.28;;;15.00;93.60;;;;;;5041288;28;20120;-77
2021/05/27 09:12:37;;;;;;;8.07;2.00;;;15.00;93.50;;;;;;5039111;28;20483;-79
2021/05/27 09:15:21;;;;;;;4.28;1.90;;;14.90;94.00;;;;;;5041127;28;20063;-76
2021/05/27 09:17:53;;;;;;;4.28;1.48;;;15.20;93.00;;;;;;5054217;28;20372;-79
2021/05/27 09:20:19;;;;;;;3.08;1.80;;;15.40;92.80;;;;;;5054373;28;20025;-77
2021/05/27 09:22:46;;;;;;;4.63;2.00;;;15.50;92.60;;;;;;5049874;28;20107;-79
2021/05/27 09:25:27;;;;;;;4.88;1.90;;;15.70;92.30;;;;;;5050869;28;20544;-78
2021/05/27 09:27:53;;;;;;;6.88;1.85;;;15.80;92.30;;;;;;5049419;28;20028;-80
2021/05/27 09:30:19;;;;;;;4.45;1.73;;;16.20;91.40;;;;;;5038283;28;20525;-77
2021/05/27 09:32:47;;;;;;;19.73;3.63;;;;;;;;;;5039545;28;20028;-78
2021/05/27 09:35:14;;;;;;;44.75;6.13;;;16.40;91.20;;;;;;5036536;28;20040;-77
2021/05/27 09:37:50;;;;;;;34.63;4.60;;;16.40;91.60;;;;;;5032185;28;20032;-77
2021/05/27 09:40:36;;;;;;;7.15;2.20;;;16.20;91.50;;;;;;5042807;28;20040;-77
2021/05/27 09:43:06;;;;;;;15.35;3.10;;;16.10;91.70;;;;;;5052858;28;20403;-78
2021/05/27 09:45:33;;;;;;;3.33;1.85;;;16.00;91.60;;;;;;5059421;28;20015;-78
2021/05/27 09:47:59;;;;;;;5.50;2.10;;;;;;;;;;5056181;28;20036;-77
2021/05/27 09:50:31;;;;;;;3.67;2.72;;;15.80;92.10;;;;;;5055984;28;20096;-80
2021/05/27 09:53:12;;;;;;;10.15;2.15;;;15.90;92.10;;;;;;5055556;28;20024;-77
2021/05/27 09:55:39;;;;;;;3.25;2.10;;;16.00;91.90;;;;;;5036759;28;20029;-76
2021/05/27 09:58:13;;;;;;;3.67;1.80;;;16.20;91.30;;;;;;5056092;28;20024;-77
2021/05/27 10:00:40;;;;;;;6.05;2.13;;;16.30;91.00;;;;;;5044938;28;20036;-76
2021/05/27 10:03:35;;;;;;;6.32;2.20;;;16.60;91.30;;;;;;5042717;28;20041;-80
2021/05/27 10:06:10;;;;;;;7.93;2.08;;;16.90;90.60;;;;;;5055681;28;20025;-78
2021/05/27 10:08:49;;;;;;;3.47;1.73;;;;;;;;;;5038482;28;20534;-75
2021/05/27 10:11:16;;;;;;;9.32;2.33;;;16.80;90.40;;;;;;5034693;28;20514;-77
2021/05/27 10:13:43;;;;;;;3.00;1.60;;;;;;;;;;5042856;28;20033;-78
2021/05/27 10:16:17;;;;;;;2.88;1.90;;;18.70;90.50;;;;;;5050458;28;20404;-77
2021/05/27 10:18:43;;;;;;;4.90;2.15;;;17.00;89.70;;;;;;5043097;28;20384;-77
2021/05/27 10:21:10;;;;;;;5.53;1.88;;;17.00;89.60;;;;;;5041602;28;20447;-77
2021/05/27 10:23:36;;;;;;;2.58;1.67;;;;;;;;;;5045239;28;20473;-77
2021/05/27 10:26:02;;;;;;;7.32;2.20;;;;;;;;;;5058931;28;20040;-75
2021/05/27 10:28:28;;;;;;;5.10;2.15;;;17.30;87.10;;;;;;5056243;28;20140;-77
2021/05/27 10:30:54;;;;;;;6.88;3.60;;;;;;;;;;5037000;28;22483;-80
2021/05/27 10:33:24;;;;;;;5.43;2.38;;;;;;;;;;5035147;28;20177;-77
2021/05/27 10:35:58;;;;;;;5.20;2.90;;;16.70;89.10;;;;;;5061614;28;20395;-79
2021/05/27 10:41:15;;;;;;;6.32;2.28;;;16.90;89.50;;;;;;5055166;28;20131;-80
2021/05/27 10:44:00;;;;;;;4.75;2.25;;;;;;;;;;5056113;28;20734;-78
2021/05/27 10:46:27;;;;;;;5.38;1.90;;;17.00;88.20;;;;;;5040255;28;20479;-77
2021/05/27 10:48:53;;;;;;;4.65;1.77;;;;;;;;;;5036702;28;20040;-78
2021/05/27 10:51:35;;;;;;;4.30;1.67;;;16.80;88.10;;;;;;5057366;28;20107;-78
2021/05/27 10:54:08;;;;;;;7.25;2.20;;;;;;;;;;5057963;28;20059;-77
2021/05/27 10:56:34;;;;;;;4.70;1.80;;;;;;;;;;5043427;28;20706;-77
2021/05/27 10:59:00;;;;;;;4.88;1.90;;;;;;;;;;5048179;28;20059;-78
2021/05/27 11:01:29;;;;;;;3.10;1.48;;;;;;;;;;5054275;28;20025;-75
2021/05/27 11:04:00;;;;;;;2.35;1.40;;;16.20;89.80;;;;;;5047042;28;20114;-80
2021/05/27 11:06:40;;;;;;;2.92;1.70;;;16.20;90.30;;;;;;5046854;28;20025;-81
2021/05/27 11:09:13;;;;;;;2.10;1.42;;;16.50;90.70;;;;;;5045565;28;20031;-81
2021/05/27 11:11:46;;;;;;;5.72;2.10;;;;;;;;;;5054898;28;20052;-75
2021/05/27 11:14:18;;;;;;;3.83;1.75;;;17.20;89.20;;;;;;5056847;28;20384;-78
2021/05/27 11:17:10;;;;;;;2.05;1.23;;;17.40;85.80;;;;;;5053768;28;20021;-75
2021/05/27 11:25:12;;;;;;;3.63;1.45;;;17.10;83.80;;;;;;5059820;28;20024;-79
2021/05/27 11:28:17;;;;;;;3.65;1.50;;;17.10;84.40;;;;;;5055848;28;20062;-79
2021/05/27 11:30:45;;;;;;;5.32;1.83;;;16.90;85.70;;;;;;5032029;28;20139;-75
2021/05/27 11:33:23;;;;;;;2.72;1.48;;;17.00;86.20;;;;;;5038198;28;20048;-78
2021/05/27 11:35:54;;;;;;;2.70;1.60;;;16.90;86.80;;;;;;5038317;28;20069;-77
2021/05/27 11:38:25;;;;;;;3.42;1.70;;;16.90;85.70;;;;;;5055549;28;20084;-77
2021/05/27 11:41:05;;;;;;;3.78;1.60;;;16.90;85.60;;;;;;5036097;28;20063;-77
2021/05/27 11:43:58;;;;;;;;;;;16.90;86.10;;;;;;5038405;28;20120;-77
2021/05/27 11:46:28;;;;;;;2.75;1.70;;;17.00;86.50;;;;;;5051323;28;20220;-77
2021/05/27 11:51:36;;;;;;;3.70;1.80;;;17.20;85.80;;;;;;5059979;28;20020;-82
2021/05/27 11:54:10;;;;;;;6.60;1.40;;;17.30;85.40;;;;;;5045961;28;20039;-79
2021/05/27 11:56:46;;;;;;;3.13;1.42;;;17.30;82.90;;;;;;5060802;28;20132;-78
2021/05/27 11:59:18;;;;;;;2.05;1.00;;;17.30;84.20;;;;;;5045353;28;21567;-76
2021/05/27 12:02:07;;;;;;;1.73;1.17;;;17.10;82.30;;;;;;5050907;28;20032;-78
2021/05/27 12:04:33;;;;;;;2.58;1.20;;;16.90;81.20;;;;;;5061040;28;20499;-80
2021/05/27 12:07:09;;;;;;;2.10;1.23;;;16.70;82.00;;;;;;5037811;28;20043;-78
2021/05/27 12:09:36;;;;;;;2.20;1.20;;;16.60;82.40;;;;;;5057840;28;20031;-79
2021/05/27 12:12:26;;;;;;;3.30;1.63;;;16.60;82.50;;;;;;5042296;28;20028;-79
2021/05/27 12:14:58;;;;;;;2.33;1.13;;;16.50;84.10;;;;;;5041207;28;20021;-76
2021/05/27 12:17:32;;;;;;;2.72;1.30;;;16.50;84.80;;;;;;5055084;28;20082;-79
2021/05/27 12:20:07;;;;;;;2.88;1.33;;;16.50;85.30;;;;;;5027091;28;20055;-81
2021/05/27 12:22:56;;;;;;;1.65;1.05;;;16.60;85.00;;;;;;5053095;28;20707;-79
2021/05/27 12:25:27;;;;;;;2.00;1.33;;;16.70;84.60;;;;;;5061867;28;20029;-79
2021/05/27 12:27:56;;;;;;;3.25;1.35;;;16.90;84.40;;;;;;5042820;28;20552;-80
2021/05/27 12:30:29;;;;;;;1.98;1.10;;;16.90;84.20;;;;;;5047910;28;20372;-77
2021/05/27 12:32:57;;;;;;;4.40;1.38;;;17.00;83.60;;;;;;5053926;28;20499;-80
2021/05/27 12:35:36;;;;;;;1.63;1.08;;;17.10;83.20;;;;;;5054727;28;20033;-79
2021/05/27 12:38:04;;;;;;;2.72;1.65;;;17.00;83.10;;;;;;5043991;28;20032;-80
2021/05/27 12:40:36;;;;;;;2.80;1.20;;;17.00;83.40;;;;;;5037023;28;20039;-81
2021/05/27 12:43:04;;;;;;;2.88;1.83;;;17.20;84.00;;;;;;5038641;28;20036;-79
2021/05/27 12:45:37;;;;;;;2.70;1.33;;;17.40;83.10;;;;;;5036063;28;20176;-82
2021/05/27 12:48:14;;;;;;;2.60;1.30;;;17.50;82.70;;;;;;5038032;28;20105;-80
2021/05/27 12:51:04;;;;;;;2.28;1.20;;;17.70;82.40;;;;;;5051754;28;20517;-79
2021/05/27 12:53:36;;;;;;;3.70;1.30;;;;;;;;;;5045838;28;20041;-79
2021/05/27 12:56:21;;;;;;;3.25;1.63;;;;;;;;;;5052841;28;20021;-81
2021/05/27 12:58:53;;;;;;;3.63;1.30;;;17.70;81.20;;;;;;5041344;28;20033;-79
2021/05/27 13:01:41;;;;;;;2.53;1.67;;;17.50;82.00;;;;;;5034727;28;20031;-81
2021/05/27 13:04:23;;;;;;;4.32;1.50;;;;;;;;;;5043523;28;20111;-80
2021/05/27 13:06:49;;;;;;;2.95;1.23;;;;;;;;;;5036538;28;20033;-82
2021/05/27 13:09:18;;;;;;;2.22;1.30;;;;;;;;;;5056632;28;20036;-79
2021/05/27 13:11:45;;;;;;;3.40;1.40;;;17.70;80.50;;;;;;5051961;28;20021;-78
2021/05/27 13:14:14;;;;;;;3.20;1.35;;;;;;;;;;5042032;28;20031;-79
2021/05/27 13:16:48;;;;;;;2.47;1.33;;;18.00;79.30;;;;;;5054037;28;20029;-78
2021/05/27 13:19:16;;;;;;;3.70;1.30;;;;;;;;;;5062612;28;20039;-78
2021/05/27 13:22:04;;;;;;;2.95;1.30;;;18.20;78.50;;;;;;5061220;28;20052;-77
2021/05/27 13:24:39;;;;;;;2.75;1.30;;;18.20;91.00;;;;;;5044008;28;20048;-79
2021/05/27 13:27:11;;;;;;;2.13;1.23;;;;;;;;;;5056254;28;20441;-75
2021/05/27 13:30:28;;;;;;;2.33;1.10;;;18.90;75.80;;;;;;5053204;28;20064;-82
2021/05/27 13:33:08;;;;;;;2.42;0.90;;;18.70;75.20;;;;;;5057906;28;20033;-75